createdAt,value
2023-05-03T00:01:37.252Z,54.85
2023-05-03T00:04:04.047Z,47.47
2023-05-03T00:06:31.503Z,39.28
2023-05-03T00:08:58.189Z,29.90
2023-05-03T00:11:24.856Z,42.28
2023-05-03T00:13:51.595Z,48.97
2023-05-03T00:16:19.430Z,29.77
2023-05-03T00:18:47.727Z,21.98
2023-05-03T00:21:15.175Z,22.30
2023-05-03T00:23:41.763Z,17.90
2023-05-03T00:26:08.455Z,17.17
2023-05-03T00:28:36.018Z,20.42
2023-05-03T00:31:09.948Z,17.35
2023-05-03T00:33:40.031Z,16.02
2023-05-03T00:36:08.204Z,16.55
2023-05-03T00:38:34.787Z,12.98
2023-05-03T00:41:03.104Z,11.13
2023-05-03T00:43:29.799Z,13.23
2023-05-03T00:46:04.915Z,12.15
2023-05-03T00:48:42.533Z,8.07
2023-05-03T00:51:09.510Z,14.38
2023-05-03T00:53:36.268Z,21.95
2023-05-03T00:56:05.774Z,12.30
2023-05-03T00:58:33.506Z,13.93
2023-05-03T01:01:00.804Z,13.60
2023-05-03T01:03:28.524Z,10.88
2023-05-03T01:06:14.177Z,9.32
2023-05-03T01:08:47.756Z,10.63
2023-05-03T01:11:23.196Z,11.68
2023-05-03T01:13:55.362Z,11.60
2023-05-03T01:16:40.694Z,11.63
2023-05-03T01:19:15.591Z,9.80
2023-05-03T01:21:42.825Z,12.30
2023-05-03T01:24:19.433Z,11.85
2023-05-03T01:26:46.969Z,14.75
2023-05-03T01:29:14.558Z,8.70
2023-05-03T01:31:47.193Z,8.55
2023-05-03T01:34:16.883Z,8.63
2023-05-03T01:36:44.806Z,8.93
2023-05-03T01:39:53.756Z,10.52
2023-05-03T01:42:23.161Z,14.50
2023-05-03T01:44:50.538Z,6.72
2023-05-03T01:47:17.307Z,8.38
2023-05-03T01:49:43.872Z,12.30
2023-05-03T01:52:10.456Z,14.27
2023-05-03T01:54:37.725Z,11.73
2023-05-03T01:57:04.528Z,11.43
2023-05-03T01:59:31.133Z,11.23
2023-05-03T02:01:57.732Z,10.80
2023-05-03T02:04:24.302Z,13.07
2023-05-03T02:06:51.743Z,9.98
2023-05-03T02:09:18.687Z,9.52
2023-05-03T02:11:45.340Z,17.77
2023-05-03T02:14:12.593Z,10.15
2023-05-03T02:16:39.268Z,11.90
2023-05-03T02:19:08.373Z,13.15
2023-05-03T02:21:35.740Z,9.48
2023-05-03T02:24:02.567Z,9.32
2023-05-03T02:26:29.309Z,8.13
2023-05-03T02:28:58.763Z,9.30
2023-05-03T02:31:27.269Z,15.02
2023-05-03T02:33:56.000Z,8.38
2023-05-03T02:36:23.274Z,10.93
2023-05-03T02:38:50.679Z,9.77
2023-05-03T02:41:18.084Z,14.88
2023-05-03T02:43:44.651Z,9.95
2023-05-03T02:46:12.610Z,11.05
2023-05-03T02:48:39.430Z,10.40
2023-05-03T02:51:06.039Z,12.30
2023-05-03T02:53:32.599Z,11.02
2023-05-03T02:56:02.211Z,9.57
2023-05-03T02:58:29.234Z,10.18
2023-05-03T03:00:56.896Z,9.55
2023-05-03T03:03:25.840Z,11.35
2023-05-03T03:05:52.606Z,9.75
2023-05-03T03:08:19.184Z,9.27
2023-05-03T03:10:45.820Z,14.73
2023-05-03T03:13:12.522Z,13.75
2023-05-03T03:15:39.150Z,9.55
2023-05-03T03:18:05.980Z,13.43
2023-05-03T03:20:32.730Z,12.27
2023-05-03T03:22:59.290Z,10.80
2023-05-03T03:25:26.649Z,9.55
2023-05-03T03:27:56.329Z,12.82
2023-05-03T03:30:22.905Z,11.95
2023-05-03T03:33:07.942Z,14.18
2023-05-03T03:35:39.816Z,13.68
2023-05-03T03:38:09.864Z,11.93
2023-05-03T03:40:41.449Z,12.73
2023-05-03T03:43:08.066Z,12.43
2023-05-03T03:45:35.723Z,8.05
2023-05-03T03:48:02.514Z,10.00
2023-05-03T03:50:29.267Z,12.52
2023-05-03T03:52:56.559Z,11.48
2023-05-03T03:55:23.163Z,14.18
2023-05-03T03:57:52.881Z,14.85
2023-05-03T04:00:19.989Z,11.30
2023-05-03T04:02:53.102Z,13.32
2023-05-03T04:05:20.099Z,14.90
2023-05-03T04:07:46.795Z,8.93
2023-05-03T04:10:15.313Z,8.57
2023-05-03T04:12:41.910Z,10.05
2023-05-03T04:15:09.052Z,13.55
2023-05-03T04:17:37.457Z,16.00
2023-05-03T04:20:10.851Z,10.18
2023-05-03T04:22:40.489Z,13.73
2023-05-03T04:25:14.303Z,11.68
2023-05-03T04:27:44.879Z,13.52
2023-05-03T04:30:15.386Z,13.93
2023-05-03T04:32:44.174Z,18.83
2023-05-03T04:35:12.548Z,11.30
2023-05-03T04:37:43.880Z,17.88
2023-05-03T04:40:14.866Z,14.00
2023-05-03T04:42:45.817Z,13.50
2023-05-03T04:45:14.435Z,13.38
2023-05-03T04:47:41.905Z,17.42
2023-05-03T04:50:10.973Z,11.13
2023-05-03T04:52:43.268Z,11.95
2023-05-03T04:55:10.581Z,14.90
2023-05-03T04:57:38.292Z,14.20
2023-05-03T05:00:11.225Z,16.10
2023-05-03T05:02:41.179Z,15.23
2023-05-03T05:05:09.396Z,13.43
2023-05-03T05:07:36.127Z,9.68
2023-05-03T05:10:03.417Z,12.10
2023-05-03T05:12:31.010Z,16.20
2023-05-03T05:15:00.107Z,14.25
2023-05-03T05:17:27.504Z,11.63
2023-05-03T05:19:54.208Z,11.18
2023-05-03T05:22:21.061Z,9.00
2023-05-03T05:24:53.829Z,11.80
2023-05-03T05:27:22.870Z,13.88
2023-05-03T05:29:52.391Z,15.85
2023-05-03T05:32:19.935Z,19.20
2023-05-03T05:34:52.887Z,22.77
2023-05-03T05:37:25.026Z,17.95
2023-05-03T05:39:52.736Z,16.42
2023-05-03T05:42:21.753Z,16.08
2023-05-03T05:44:48.411Z,16.25
2023-05-03T05:47:15.058Z,12.68
2023-05-03T05:49:43.674Z,13.98
2023-05-03T05:52:11.853Z,14.93
2023-05-03T05:54:39.315Z,14.68
2023-05-03T05:57:05.923Z,21.95
2023-05-03T05:59:32.543Z,14.95
2023-05-03T06:02:00.290Z,18.52
2023-05-03T06:04:28.599Z,10.85
2023-05-03T06:06:56.453Z,14.57
2023-05-03T06:09:25.103Z,11.27
2023-05-03T06:11:56.236Z,11.93
2023-05-03T06:14:23.963Z,18.75
2023-05-03T06:16:51.709Z,12.18
2023-05-03T06:19:18.392Z,13.75
2023-05-03T06:21:44.947Z,11.25
2023-05-03T06:24:11.763Z,12.73
2023-05-03T06:26:39.095Z,12.55
2023-05-03T06:29:06.511Z,16.13
2023-05-03T06:31:33.388Z,8.65
2023-05-03T06:34:00.143Z,9.73
2023-05-03T06:36:27.648Z,19.00
2023-05-03T06:38:54.259Z,11.48
2023-05-03T06:41:20.937Z,12.60
2023-05-03T06:43:47.569Z,9.70
2023-05-03T06:46:14.236Z,7.82
2023-05-03T06:48:40.989Z,11.75
2023-05-03T06:51:07.586Z,10.85
2023-05-03T06:53:35.520Z,19.08
2023-05-03T06:56:03.588Z,11.70
2023-05-03T06:58:30.151Z,14.73
2023-05-03T07:00:56.734Z,14.98
2023-05-03T07:03:23.828Z,8.10
2023-05-03T07:05:50.517Z,9.38
2023-05-03T07:08:17.634Z,9.38
2023-05-03T07:10:44.248Z,12.02
2023-05-03T07:13:10.836Z,9.73
2023-05-03T07:15:37.455Z,8.45
2023-05-03T07:18:04.063Z,9.93
2023-05-03T07:20:30.666Z,9.07
2023-05-03T07:22:58.192Z,6.07
2023-05-03T07:25:24.974Z,10.55
2023-05-03T07:27:51.632Z,8.57
2023-05-03T07:30:18.594Z,8.52
2023-05-03T07:32:45.420Z,5.60
2023-05-03T07:35:12.132Z,6.47
2023-05-03T07:37:38.998Z,4.90
2023-05-03T07:40:07.022Z,6.85
2023-05-03T07:42:33.685Z,4.15
2023-05-03T07:45:00.988Z,7.57
2023-05-03T07:47:28.008Z,5.40
2023-05-03T07:49:54.867Z,8.32
2023-05-03T07:52:21.502Z,6.25
2023-05-03T07:54:48.121Z,6.05
2023-05-03T07:57:16.131Z,7.72
2023-05-03T07:59:43.408Z,5.28
2023-05-03T08:02:10.090Z,4.72
2023-05-03T08:04:36.806Z,7.38
2023-05-03T08:07:04.273Z,10.23
2023-05-03T08:09:31.098Z,4.38
2023-05-03T08:11:58.024Z,5.53
2023-05-03T08:14:24.593Z,7.68
2023-05-03T08:16:51.509Z,12.57
2023-05-03T08:19:18.136Z,11.57
2023-05-03T08:21:46.823Z,5.97
2023-05-03T08:24:16.036Z,5.60
2023-05-03T08:26:44.559Z,9.48
2023-05-03T08:29:11.186Z,4.85
2023-05-03T08:31:37.895Z,8.50
2023-05-03T08:34:05.081Z,4.90
2023-05-03T08:36:31.838Z,7.03
2023-05-03T08:38:58.458Z,9.43
2023-05-03T08:41:31.600Z,6.22
2023-05-03T08:43:59.618Z,6.95
2023-05-03T08:46:27.531Z,5.60
2023-05-03T08:48:55.050Z,8.38
2023-05-03T08:51:22.624Z,7.68
2023-05-03T08:53:49.964Z,6.65
2023-05-03T08:56:40.107Z,7.60
2023-05-03T08:59:09.776Z,6.20
2023-05-03T09:01:37.221Z,6.70
2023-05-03T09:04:04.338Z,5.57
2023-05-03T09:06:33.101Z,17.35
2023-05-03T09:09:00.314Z,5.47
2023-05-03T09:11:29.406Z,6.25
2023-05-03T09:14:16.137Z,6.53
2023-05-03T09:16:44.486Z,4.15
2023-05-03T09:19:13.141Z,6.78
2023-05-03T09:21:41.285Z,4.70
2023-05-03T09:24:34.212Z,4.82
2023-05-03T09:27:03.125Z,5.22
2023-05-03T09:29:32.474Z,7.78
2023-05-03T09:32:05.534Z,5.25
2023-05-03T09:34:33.553Z,6.25
2023-05-03T09:37:00.200Z,9.75
2023-05-03T09:39:26.818Z,7.30
2023-05-03T09:41:54.081Z,5.07
2023-05-03T09:44:20.696Z,5.72
2023-05-03T09:47:06.547Z,6.90
2023-05-03T09:49:33.463Z,9.35
2023-05-03T09:52:01.464Z,7.68
2023-05-03T09:54:28.944Z,6.82
2023-05-03T09:56:55.644Z,5.18
2023-05-03T09:59:22.221Z,7.90
2023-05-03T10:01:49.202Z,6.32
2023-05-03T10:04:19.847Z,5.65
2023-05-03T10:06:49.012Z,5.85
2023-05-03T10:09:20.693Z,5.85
2023-05-03T10:11:59.472Z,8.15
2023-05-03T10:14:26.392Z,6.90
2023-05-03T10:17:47.295Z,6.45
2023-05-03T10:20:45.617Z,6.50
2023-05-03T10:23:13.477Z,4.53
2023-05-03T10:26:00.994Z,4.93
2023-05-03T10:28:27.601Z,4.38
2023-05-03T10:30:54.344Z,8.18
2023-05-03T10:33:21.708Z,6.28
2023-05-03T10:35:53.148Z,6.63
2023-05-03T10:38:28.039Z,5.88
2023-05-03T10:40:56.284Z,7.97
2023-05-03T10:43:29.065Z,4.85
2023-05-03T10:46:01.809Z,6.15
2023-05-03T10:48:29.296Z,4.15
2023-05-03T10:50:56.722Z,8.00
2023-05-03T10:53:40.604Z,7.22
2023-05-03T10:56:09.568Z,7.90
2023-05-03T10:58:44.291Z,6.72
2023-05-03T11:01:13.240Z,7.07
2023-05-03T11:03:51.821Z,5.43
2023-05-03T11:06:35.848Z,12.13
2023-05-03T11:09:05.949Z,10.65
2023-05-03T11:11:33.577Z,4.55
2023-05-03T11:14:00.286Z,7.63
2023-05-03T11:16:27.260Z,5.28
2023-05-03T11:18:54.038Z,7.55
2023-05-03T11:21:21.142Z,6.85
2023-05-03T11:23:47.692Z,12.75
2023-05-03T11:26:14.927Z,4.70
2023-05-03T11:28:42.788Z,7.95
2023-05-03T11:31:10.191Z,8.23
2023-05-03T11:33:38.240Z,6.45
2023-05-03T11:36:09.447Z,7.38
2023-05-03T11:38:38.649Z,7.88
2023-05-03T11:41:18.051Z,8.10
2023-05-03T11:43:46.033Z,5.18
2023-05-03T11:46:19.699Z,12.65
2023-05-03T11:48:46.436Z,12.30
2023-05-03T11:51:13.970Z,7.22
2023-05-03T11:53:44.988Z,7.97
2023-05-03T11:56:14.172Z,9.00
2023-05-03T11:58:54.505Z,5.30
2023-05-03T12:01:24.128Z,13.32
2023-05-03T12:03:59.177Z,8.48
2023-05-03T12:06:28.877Z,6.57
2023-05-03T12:08:56.606Z,7.25
2023-05-03T12:11:26.504Z,8.05
2023-05-03T12:13:58.866Z,5.65
2023-05-03T12:16:26.219Z,7.57
2023-05-03T12:19:01.962Z,7.50
2023-05-03T12:21:54.238Z,7.05
2023-05-03T12:24:28.702Z,7.28
2023-05-03T12:26:57.331Z,6.93
2023-05-03T12:29:24.812Z,8.90
2023-05-03T12:31:52.540Z,9.68
2023-05-03T12:34:33.840Z,7.57
2023-05-03T12:37:04.646Z,9.43
2023-05-03T12:39:32.988Z,11.90
2023-05-03T12:44:34.425Z,7.07
2023-05-03T12:47:02.279Z,5.47
2023-05-03T12:49:29.382Z,6.22
2023-05-03T12:52:11.140Z,6.00
2023-05-03T12:54:48.892Z,7.43
2023-05-03T12:57:22.285Z,6.43
2023-05-03T12:59:53.978Z,8.68
2023-05-03T13:04:59.448Z,14.88
2023-05-03T13:07:30.198Z,8.18
2023-05-03T13:12:27.960Z,8.40
2023-05-03T13:14:55.728Z,9.07
2023-05-03T13:17:23.170Z,7.32
2023-05-03T13:19:51.390Z,7.88
2023-05-03T13:22:18.252Z,7.43
2023-05-03T13:24:46.884Z,8.57
2023-05-03T13:27:13.685Z,8.32
2023-05-03T13:29:40.533Z,9.50
2023-05-03T13:32:08.294Z,16.27
2023-05-03T13:34:36.229Z,7.90
2023-05-03T13:37:04.261Z,7.68
2023-05-03T13:39:31.454Z,11.13
2023-05-03T13:41:58.071Z,7.55
2023-05-03T13:44:25.367Z,9.85
2023-05-03T13:46:56.365Z,8.18
2023-05-03T13:49:22.918Z,9.07
2023-05-03T13:51:49.499Z,8.65
2023-05-03T13:54:16.105Z,9.52
2023-05-03T13:56:43.172Z,9.25
2023-05-03T13:59:12.198Z,10.38
2023-05-03T14:01:38.959Z,7.68
2023-05-03T14:04:05.925Z,7.35
2023-05-03T14:06:33.514Z,5.93
2023-05-03T14:09:01.654Z,8.55
2023-05-03T14:11:30.027Z,13.75
2023-05-03T14:13:58.273Z,9.10
2023-05-03T14:16:39.946Z,6.05
2023-05-03T14:19:10.235Z,8.38
2023-05-03T14:21:37.477Z,8.05
2023-05-03T14:24:04.346Z,8.52
2023-05-03T14:26:33.143Z,9.25
2023-05-03T14:28:59.771Z,8.70
2023-05-03T14:31:26.382Z,13.52
2023-05-03T14:33:53.033Z,10.93
2023-05-03T14:36:19.670Z,10.02
2023-05-03T14:38:46.458Z,16.58
2023-05-03T14:41:13.095Z,6.40
2023-05-03T14:43:39.751Z,9.60
2023-05-03T14:46:08.228Z,8.73
2023-05-03T14:48:35.628Z,7.28
2023-05-03T14:51:02.255Z,13.10
2023-05-03T14:53:29.043Z,10.95
2023-05-03T14:55:57.768Z,7.93
2023-05-03T14:58:24.505Z,10.07
2023-05-03T15:00:51.098Z,6.20
2023-05-03T15:03:18.414Z,10.38
2023-05-03T15:05:46.541Z,8.45
2023-05-03T15:08:17.886Z,11.43
2023-05-03T15:10:44.777Z,10.23
2023-05-03T15:13:12.398Z,6.63
2023-05-03T15:15:39.757Z,7.53
2023-05-03T15:18:07.985Z,11.40
2023-05-03T15:20:35.094Z,7.63
2023-05-03T15:23:05.680Z,7.50
2023-05-03T15:25:32.666Z,8.00
2023-05-03T15:28:02.614Z,9.60
2023-05-03T15:30:30.640Z,6.45
2023-05-03T15:32:57.305Z,6.97
2023-05-03T15:35:23.901Z,6.00
2023-05-03T15:37:50.471Z,9.75
2023-05-03T15:40:18.564Z,4.63
2023-05-03T15:42:45.198Z,8.23
2023-05-03T15:45:13.237Z,8.00
2023-05-03T15:47:40.032Z,5.63
2023-05-03T15:50:07.557Z,6.00
2023-05-03T15:52:34.977Z,7.38
2023-05-03T15:55:01.732Z,6.20
2023-05-03T15:57:31.024Z,5.95
2023-05-03T15:59:57.929Z,7.25
2023-05-03T16:02:24.698Z,6.80
2023-05-03T16:04:52.169Z,8.27
2023-05-03T16:07:18.847Z,5.38
2023-05-03T16:09:46.895Z,5.50
2023-05-03T16:12:13.517Z,9.15
2023-05-03T16:14:40.308Z,6.10
2023-05-03T16:17:07.196Z,3.88
2023-05-03T16:19:33.792Z,5.55
2023-05-03T16:22:00.750Z,4.93
2023-05-03T16:24:28.399Z,11.48
2023-05-03T16:26:55.184Z,5.93
2023-05-03T16:29:24.431Z,6.05
2023-05-03T16:31:51.100Z,6.22
2023-05-03T16:34:17.989Z,7.90
2023-05-03T16:36:45.265Z,9.27
2023-05-03T16:39:12.466Z,4.30
2023-05-03T16:41:39.379Z,8.40
2023-05-03T16:44:07.267Z,6.15
2023-05-03T16:46:39.239Z,6.53
2023-05-03T16:49:14.376Z,8.75
2023-05-03T16:51:41.470Z,6.50
2023-05-03T16:54:08.127Z,5.72
2023-05-03T16:56:34.766Z,5.97
2023-05-03T16:59:01.851Z,7.07
2023-05-03T17:01:28.475Z,8.98
2023-05-03T17:03:55.134Z,5.47
2023-05-03T17:06:21.767Z,6.13
2023-05-03T17:08:48.431Z,7.15
2023-05-03T17:11:15.326Z,5.22
2023-05-03T17:13:42.644Z,8.98
2023-05-03T17:16:11.315Z,9.60
2023-05-03T17:18:40.186Z,6.50
2023-05-03T17:21:11.122Z,6.32
2023-05-03T17:23:38.751Z,9.43
2023-05-03T17:26:10.207Z,6.72
2023-05-03T17:28:37.042Z,5.03
2023-05-03T17:31:05.591Z,6.93
2023-05-03T17:33:33.228Z,10.10
2023-05-03T17:36:04.809Z,5.40
2023-05-03T17:38:33.203Z,7.88
2023-05-03T17:41:05.275Z,14.63
2023-05-03T17:43:32.113Z,6.40
2023-05-03T17:46:06.527Z,10.35
2023-05-03T17:48:33.204Z,10.63
2023-05-03T17:50:59.932Z,11.60
2023-05-03T17:53:26.625Z,5.10
2023-05-03T17:55:53.737Z,7.97
2023-05-03T17:58:20.874Z,11.50
2023-05-03T18:00:48.663Z,11.27
2023-05-03T18:03:16.913Z,8.70
2023-05-03T18:05:44.772Z,9.68
2023-05-03T18:08:12.171Z,5.55
2023-05-03T18:10:41.663Z,10.88
2023-05-03T18:13:10.267Z,10.60
2023-05-03T18:15:40.811Z,9.63
2023-05-03T18:18:08.070Z,9.93
2023-05-03T18:20:34.877Z,8.20
2023-05-03T18:23:02.699Z,7.45
2023-05-03T18:25:29.451Z,10.68
2023-05-03T18:27:57.227Z,7.80
2023-05-03T18:30:28.130Z,12.10
2023-05-03T18:32:57.844Z,9.27
2023-05-03T18:35:24.733Z,11.85
2023-05-03T18:37:52.871Z,12.75
2023-05-03T18:40:19.661Z,10.88
2023-05-03T18:42:46.291Z,10.32
2023-05-03T18:45:15.112Z,9.85
2023-05-03T18:47:42.267Z,14.68
2023-05-03T18:50:09.375Z,9.32
2023-05-03T18:52:35.978Z,8.38
2023-05-03T18:55:03.398Z,14.15
2023-05-03T18:57:29.980Z,12.45
2023-05-03T19:00:01.098Z,10.32
2023-05-03T19:02:31.157Z,12.68
2023-05-03T19:04:58.624Z,9.63
2023-05-03T19:07:25.335Z,8.48
2023-05-03T19:09:56.128Z,12.27
2023-05-03T19:12:23.164Z,12.23
2023-05-03T19:14:49.803Z,16.25
2023-05-03T19:17:17.149Z,19.17
2023-05-03T19:19:43.865Z,19.55
2023-05-03T19:22:10.610Z,14.82
2023-05-03T19:24:37.285Z,13.55
2023-05-03T19:27:04.657Z,15.00
2023-05-03T19:29:31.672Z,18.98
2023-05-03T19:31:58.330Z,18.42
2023-05-03T19:34:25.000Z,17.52
2023-05-03T19:36:52.379Z,17.58
2023-05-03T19:39:19.223Z,18.13
2023-05-03T19:41:47.220Z,22.80
2023-05-03T19:44:13.928Z,18.48
2023-05-03T19:46:40.731Z,20.45
2023-05-03T19:49:07.544Z,19.92
2023-05-03T19:51:34.253Z,22.25
2023-05-03T19:54:04.048Z,9.38
2023-05-03T19:56:30.774Z,13.18
2023-05-03T19:58:57.363Z,15.45
2023-05-03T20:01:24.058Z,13.88
2023-05-03T20:03:53.429Z,17.73
2023-05-03T20:06:20.853Z,20.17
2023-05-03T20:08:47.507Z,17.67
2023-05-03T20:11:14.187Z,18.20
2023-05-03T20:13:40.814Z,18.17
2023-05-03T20:16:08.269Z,15.00
2023-05-03T20:18:35.039Z,14.43
2023-05-03T20:21:02.427Z,14.90
2023-05-03T20:23:28.999Z,16.50
2023-05-03T20:25:55.610Z,13.95
2023-05-03T20:28:22.312Z,11.38
2023-05-03T20:30:49.190Z,13.60
2023-05-03T20:33:15.977Z,12.52
2023-05-03T20:35:42.694Z,10.52
2023-05-03T20:38:09.361Z,9.68
2023-05-03T20:40:36.051Z,11.70
2023-05-03T20:43:02.828Z,12.32
2023-05-03T20:45:29.837Z,10.20
2023-05-03T20:47:56.547Z,13.35
2023-05-03T20:50:23.200Z,13.95
2023-05-03T20:52:49.757Z,9.40
2023-05-03T20:55:16.446Z,8.57
2023-05-03T20:57:43.329Z,9.55
2023-05-03T21:00:15.724Z,10.02
2023-05-03T21:02:43.211Z,9.18
2023-05-03T21:05:10.725Z,8.88
2023-05-03T21:07:37.714Z,9.77
2023-05-03T21:10:05.851Z,9.57
2023-05-03T21:12:32.652Z,15.88
2023-05-03T21:14:59.307Z,10.57
2023-05-03T21:17:25.950Z,9.15
2023-05-03T21:19:52.568Z,9.52
2023-05-03T21:22:19.894Z,9.93
2023-05-03T21:24:46.451Z,14.98
2023-05-03T21:27:13.076Z,13.38
2023-05-03T21:29:39.683Z,11.40
2023-05-03T21:32:06.761Z,13.10
2023-05-03T21:34:33.492Z,10.48
2023-05-03T21:37:01.086Z,16.63
2023-05-03T21:39:27.798Z,13.88
2023-05-03T21:41:54.708Z,11.73
2023-05-03T21:44:21.315Z,13.10
2023-05-03T21:46:47.911Z,11.25
2023-05-03T21:49:15.200Z,9.68
2023-05-03T21:51:41.878Z,9.20
2023-05-03T21:54:08.506Z,11.45
2023-05-03T21:56:35.131Z,15.73
2023-05-03T21:59:01.904Z,11.63
2023-05-03T22:01:28.603Z,10.52
2023-05-03T22:03:55.516Z,22.90
2023-05-03T22:06:22.420Z,13.95
2023-05-03T22:08:49.354Z,9.70
2023-05-03T22:11:16.038Z,12.85
2023-05-03T22:13:58.732Z,19.08
2023-05-03T22:16:29.613Z,13.80
2023-05-03T22:18:56.252Z,16.30
2023-05-03T22:21:22.805Z,10.93
2023-05-03T22:23:49.405Z,14.32
2023-05-03T22:26:16.397Z,13.32
2023-05-03T22:28:42.947Z,14.73
2023-05-03T22:31:09.608Z,14.75
2023-05-03T22:33:36.166Z,15.55
2023-05-03T22:36:02.700Z,18.27
2023-05-03T22:38:29.342Z,16.15
2023-05-03T22:40:56.111Z,18.83
2023-05-03T22:43:22.721Z,23.73
2023-05-03T22:45:49.363Z,14.73
2023-05-03T22:48:15.902Z,13.85
2023-05-03T22:50:43.147Z,19.50
2023-05-03T22:53:09.697Z,17.00
2023-05-03T22:55:36.518Z,12.23
2023-05-03T22:58:03.058Z,12.82
2023-05-03T23:00:29.910Z,11.27
2023-05-03T23:02:56.532Z,10.75
2023-05-03T23:05:23.282Z,13.07
2023-05-03T23:07:49.926Z,11.73
2023-05-03T23:10:19.261Z,14.27
2023-05-03T23:12:45.927Z,17.92
2023-05-03T23:15:12.568Z,11.82
2023-05-03T23:17:39.153Z,16.45
2023-05-03T23:20:06.675Z,13.48
2023-05-03T23:22:33.466Z,10.27
2023-05-03T23:25:00.375Z,10.18
2023-05-03T23:27:26.933Z,12.60
2023-05-03T23:29:53.824Z,14.43
2023-05-03T23:32:21.014Z,12.32
2023-05-03T23:34:48.169Z,13.32
2023-05-03T23:37:14.772Z,12.48
2023-05-03T23:39:45.182Z,10.90
2023-05-03T23:42:12.764Z,12.45
2023-05-03T23:44:53.719Z,17.08
2023-05-03T23:47:21.540Z,12.98
2023-05-03T23:49:48.128Z,14.93
2023-05-03T23:52:16.835Z,13.48
2023-05-03T23:54:43.489Z,10.10
2023-05-03T23:57:10.105Z,11.18
2023-05-03T23:59:36.652Z,11.82
